createdAt,value
2022-12-20T00:01:21.086Z,102333.16
2022-12-20T00:03:51.363Z,102334.05
2022-12-20T00:06:18.985Z,102335.14
2022-12-20T00:08:46.431Z,102333.92
2022-12-20T00:11:13.980Z,102331.48
2022-12-20T00:13:40.800Z,102330.95
2022-12-20T00:16:20.228Z,102325.80
2022-12-20T00:18:52.368Z,102320.64
2022-12-20T00:21:19.162Z,102312.31
2022-12-20T00:23:45.931Z,102313.37
2022-12-20T00:26:15.711Z,102314.29
2022-12-20T00:28:43.416Z,102314.48
2022-12-20T00:31:11.528Z,102312.89
2022-12-20T00:33:40.190Z,102310.55
2022-12-20T00:36:09.397Z,102312.50
2022-12-20T00:38:36.668Z,102311.46
2022-12-20T00:41:07.639Z,102313.01
2022-12-20T00:43:37.387Z,102312.45
2022-12-20T00:46:04.533Z,102312.97
2022-12-20T00:48:33.717Z,102310.67
2022-12-20T00:51:04.255Z,102315.27
2022-12-20T00:53:31.822Z,102314.55
2022-12-20T00:55:59.006Z,102314.39
2022-12-20T00:58:26.791Z,102317.56
2022-12-20T01:00:56.390Z,102310.28
2022-12-20T01:03:24.645Z,102309.20
2022-12-20T01:05:57.409Z,102304.56
2022-12-20T01:08:25.068Z,102308.45
2022-12-20T01:11:00.295Z,102303.87
2022-12-20T01:13:27.414Z,102305.31
2022-12-20T01:15:54.190Z,102298.10
2022-12-20T01:18:20.944Z,102296.89
2022-12-20T01:20:47.692Z,102296.71
2022-12-20T01:23:14.460Z,102292.98
2022-12-20T01:25:41.143Z,102293.27
2022-12-20T01:28:07.928Z,102292.31
2022-12-20T01:30:34.688Z,102296.02
2022-12-20T01:33:01.492Z,102298.84
2022-12-20T01:35:28.259Z,102295.83
2022-12-20T01:37:54.959Z,102293.36
2022-12-20T01:40:21.666Z,102291.91
2022-12-20T01:42:48.395Z,102290.47
2022-12-20T01:45:26.013Z,102285.65
2022-12-20T01:47:52.822Z,102278.52
2022-12-20T01:50:19.956Z,102277.98
2022-12-20T01:52:47.882Z,102273.14
2022-12-20T01:55:22.750Z,102267.80
2022-12-20T01:57:52.880Z,102266.75
2022-12-20T02:00:20.329Z,102263.08
2022-12-20T02:02:48.286Z,102259.55
2022-12-20T02:05:16.849Z,102258.73
2022-12-20T02:07:48.407Z,102254.37
2022-12-20T02:10:17.220Z,102252.09
2022-12-20T02:12:46.377Z,102251.38
2022-12-20T02:15:43.745Z,102248.18
2022-12-20T02:18:24.105Z,102239.55
2022-12-20T02:21:09.618Z,102236.55
2022-12-20T02:24:07.371Z,102233.19
2022-12-20T02:27:03.648Z,102236.36
2022-12-20T02:30:00.229Z,102230.35
2022-12-20T02:32:33.906Z,102224.30
2022-12-20T02:35:04.761Z,102218.63
2022-12-20T02:37:31.959Z,102217.73
2022-12-20T02:40:00.217Z,102220.91
2022-12-20T02:42:28.837Z,102218.80
2022-12-20T02:45:17.055Z,102221.83
2022-12-20T02:48:00.485Z,102222.02
2022-12-20T02:50:34.669Z,102219.92
2022-12-20T02:53:01.583Z,102226.46
2022-12-20T02:55:56.724Z,102222.34
2022-12-20T02:58:46.807Z,102221.27
2022-12-20T03:01:24.975Z,102227.28
2022-12-20T03:03:55.273Z,102220.70
2022-12-20T03:06:22.083Z,102218.27
2022-12-20T03:08:48.825Z,102218.83
2022-12-20T03:11:16.118Z,102214.26
2022-12-20T03:13:42.995Z,102219.16
2022-12-20T03:16:10.978Z,102217.03
2022-12-20T03:18:37.889Z,102215.40
2022-12-20T03:21:04.661Z,102217.16
2022-12-20T03:23:32.034Z,102213.80
2022-12-20T03:25:58.753Z,102210.08
2022-12-20T03:28:33.202Z,102206.89
2022-12-20T03:31:00.153Z,102200.70
2022-12-20T03:33:27.380Z,102200.16
2022-12-20T03:35:54.387Z,102205.42
2022-12-20T03:38:21.302Z,102203.12
2022-12-20T03:40:48.035Z,102200.65
2022-12-20T03:43:17.462Z,102188.67
2022-12-20T03:45:44.205Z,102194.34
2022-12-20T03:48:11.063Z,102193.10
2022-12-20T03:50:38.212Z,102187.96
2022-12-20T03:53:05.297Z,102189.23
2022-12-20T03:55:32.690Z,102192.11
2022-12-20T03:57:59.969Z,102201.90
2022-12-20T04:00:35.679Z,102200.34
2022-12-20T04:03:24.838Z,102197.83
2022-12-20T04:05:52.002Z,102195.15
2022-12-20T04:08:18.967Z,102196.17
2022-12-20T04:11:05.718Z,102194.77
2022-12-20T04:13:34.152Z,102197.40
2022-12-20T04:16:01.540Z,102198.46
2022-12-20T04:18:31.232Z,102198.48
2022-12-20T04:21:03.763Z,102198.98
2022-12-20T04:23:31.053Z,102197.88
2022-12-20T04:25:58.412Z,102195.17
2022-12-20T04:28:25.271Z,102191.22
2022-12-20T04:30:53.602Z,102188.86
2022-12-20T04:33:23.830Z,102187.30
2022-12-20T04:35:50.761Z,102182.72
2022-12-20T04:38:18.455Z,102183.27
2022-12-20T04:40:53.115Z,102181.50
2022-12-20T04:43:20.996Z,102180.65
2022-12-20T04:45:48.748Z,102175.71
2022-12-20T04:48:54.762Z,102174.83
2022-12-20T04:51:03.028Z,102171.99
2022-12-20T04:53:49.882Z,102165.61
2022-12-20T04:56:39.149Z,102167.35
2022-12-20T04:59:11.021Z,102161.85
2022-12-20T05:01:39.259Z,102165.88
2022-12-20T05:04:06.153Z,102164.09
2022-12-20T05:06:37.165Z,102165.31
2022-12-20T05:09:04.443Z,102165.42
2022-12-20T05:11:32.119Z,102161.30
2022-12-20T05:13:59.284Z,102167.27
2022-12-20T05:16:26.142Z,102163.00
2022-12-20T05:18:53.259Z,102157.30
2022-12-20T05:21:39.260Z,102153.73
2022-12-20T05:24:25.451Z,102151.27
2022-12-20T05:27:09.736Z,102155.52
2022-12-20T05:29:36.481Z,102149.89
2022-12-20T05:32:03.461Z,102146.71
2022-12-20T05:34:32.885Z,102148.31
2022-12-20T05:36:59.597Z,102147.80
2022-12-20T05:39:31.073Z,102153.14
2022-12-20T05:41:59.945Z,102146.09
2022-12-20T05:44:27.737Z,102139.96
2022-12-20T05:46:56.662Z,102144.93
2022-12-20T05:49:27.296Z,102143.02
2022-12-20T05:51:54.506Z,102138.61
2022-12-20T05:54:25.421Z,102137.14
2022-12-20T05:57:03.709Z,102133.05
2022-12-20T05:59:35.971Z,102134.44
2022-12-20T06:02:04.072Z,102132.71
2022-12-20T06:04:33.175Z,102133.46
2022-12-20T06:07:05.674Z,102136.28
2022-12-20T06:09:33.308Z,102136.29
2022-12-20T06:12:05.719Z,102137.37
2022-12-20T06:14:33.816Z,102139.17
2022-12-20T06:17:01.982Z,102130.11
2022-12-20T06:19:30.452Z,102119.27
2022-12-20T06:22:00.854Z,102119.27
2022-12-20T06:24:36.451Z,102126.69
2022-12-20T06:27:03.632Z,102131.88
2022-12-20T06:29:30.550Z,102128.89
2022-12-20T06:32:08.367Z,102125.55
2022-12-20T06:34:35.279Z,102124.34
2022-12-20T06:37:02.199Z,102127.61
2022-12-20T06:39:32.293Z,102129.88
2022-12-20T06:42:04.610Z,102131.60
2022-12-20T06:44:31.491Z,102134.61
2022-12-20T06:46:59.117Z,102133.73
2022-12-20T06:49:25.862Z,102138.69
2022-12-20T06:51:53.173Z,102133.55
2022-12-20T06:54:25.763Z,102135.31
2022-12-20T06:56:52.481Z,102134.95
2022-12-20T06:59:19.670Z,102135.33
2022-12-20T07:01:46.618Z,102137.09
2022-12-20T07:04:13.453Z,102136.19
2022-12-20T07:06:40.159Z,102138.11
2022-12-20T07:09:06.985Z,102140.41
2022-12-20T07:11:33.688Z,102144.14
2022-12-20T07:14:00.665Z,102148.70
2022-12-20T07:16:27.497Z,102149.45
2022-12-20T07:18:55.403Z,102153.36
2022-12-20T07:21:22.189Z,102153.02
2022-12-20T07:23:49.351Z,102156.52
2022-12-20T07:26:16.576Z,102154.02
2022-12-20T07:28:43.795Z,102150.95
2022-12-20T07:31:10.884Z,102150.41
2022-12-20T07:33:38.834Z,102157.53
2022-12-20T07:36:12.554Z,102150.27
2022-12-20T07:38:39.595Z,102148.65
2022-12-20T07:41:11.252Z,102148.28
2022-12-20T07:43:38.294Z,102152.10
2022-12-20T07:46:06.590Z,102149.92
2022-12-20T07:48:34.361Z,102146.37
2022-12-20T07:51:19.141Z,102146.19
2022-12-20T07:53:52.719Z,102143.53
2022-12-20T07:56:21.232Z,102146.19
2022-12-20T07:58:52.063Z,102136.80
2022-12-20T08:01:19.969Z,102147.02
2022-12-20T08:03:51.516Z,102144.94
2022-12-20T08:06:19.654Z,102140.46
2022-12-20T08:08:51.581Z,102145.23
2022-12-20T08:11:19.742Z,102142.20
2022-12-20T08:13:48.792Z,102147.99
2022-12-20T08:16:18.299Z,102145.66
2022-12-20T08:18:45.118Z,102144.23
2022-12-20T08:21:13.214Z,102141.05
2022-12-20T08:23:40.370Z,102137.51
2022-12-20T08:26:07.102Z,102136.43
2022-12-20T08:28:33.851Z,102134.48
2022-12-20T08:31:02.992Z,102137.15
2022-12-20T08:33:30.056Z,102142.08
2022-12-20T08:35:58.828Z,102140.98
2022-12-20T08:38:27.735Z,102142.36
2022-12-20T08:40:54.978Z,102146.96
2022-12-20T08:43:21.674Z,102151.73
2022-12-20T08:45:55.489Z,102156.00
2022-12-20T08:48:23.013Z,102153.70
2022-12-20T08:51:02.051Z,102155.11
2022-12-20T08:53:29.696Z,102159.48
2022-12-20T08:56:16.325Z,102155.56
2022-12-20T08:58:44.807Z,102157.10
2022-12-20T09:01:15.062Z,102153.55
2022-12-20T09:03:42.924Z,102152.45
2022-12-20T09:06:13.489Z,102152.80
2022-12-20T09:08:41.134Z,102155.83
2022-12-20T09:11:09.319Z,102156.15
2022-12-20T09:13:41.642Z,102155.54
2022-12-20T09:16:11.728Z,102158.49
2022-12-20T09:18:38.570Z,102159.14
2022-12-20T09:21:07.045Z,102161.00
2022-12-20T09:23:35.426Z,102159.91
2022-12-20T09:26:08.167Z,102157.97
2022-12-20T09:28:35.465Z,102160.32
2022-12-20T09:31:04.960Z,102152.89
2022-12-20T09:33:34.899Z,102150.00
2022-12-20T09:36:02.999Z,102151.20
2022-12-20T09:38:31.359Z,102151.69
2022-12-20T09:41:04.505Z,102139.59
2022-12-20T09:43:32.575Z,102139.84
2022-12-20T09:46:02.451Z,102137.65
2022-12-20T09:48:33.827Z,102138.13
2022-12-20T09:51:12.028Z,102132.96
2022-12-20T09:54:16.355Z,102123.76
2022-12-20T09:57:07.811Z,102119.32
2022-12-20T09:59:42.237Z,102124.20
2022-12-20T10:02:55.131Z,102130.57
2022-12-20T10:05:22.847Z,102121.66
2022-12-20T10:08:03.665Z,102108.48
2022-12-20T10:10:48.786Z,102111.38
2022-12-20T10:13:34.257Z,102109.83
2022-12-20T10:16:09.756Z,102102.16
2022-12-20T10:19:04.363Z,102103.40
2022-12-20T10:21:39.491Z,102094.73
2022-12-20T10:24:18.559Z,102089.16
2022-12-20T10:26:49.773Z,102086.23
2022-12-20T10:29:17.033Z,102072.59
2022-12-20T10:31:43.908Z,102077.38
2022-12-20T10:34:10.745Z,102075.23
2022-12-20T10:36:37.774Z,102061.35
2022-12-20T10:39:07.076Z,102059.73
2022-12-20T10:41:45.691Z,102058.49
2022-12-20T10:44:15.641Z,102057.80
2022-12-20T10:46:45.642Z,102051.11
2022-12-20T10:49:26.485Z,102053.19
2022-12-20T10:51:55.606Z,102047.77
2022-12-20T10:54:31.610Z,102043.45
2022-12-20T10:57:02.031Z,102042.36
2022-12-20T10:59:34.779Z,102036.16
2022-12-20T11:02:03.725Z,102032.38
2022-12-20T11:04:30.744Z,102021.66
2022-12-20T11:06:58.827Z,102027.83
2022-12-20T11:09:27.921Z,102021.23
2022-12-20T11:12:00.582Z,102013.23
2022-12-20T11:14:31.494Z,101997.84
2022-12-20T11:17:51.693Z,101991.81
2022-12-20T11:20:42.647Z,101986.31
2022-12-20T11:23:43.599Z,101987.67
2022-12-20T11:26:25.629Z,101979.19
2022-12-20T11:28:55.185Z,101970.27
2022-12-20T11:31:34.838Z,101962.98
2022-12-20T11:34:14.901Z,101963.66
2022-12-20T11:37:18.859Z,101964.91
2022-12-20T11:39:57.285Z,101974.60
2022-12-20T11:42:42.118Z,101971.42
2022-12-20T11:45:51.111Z,101963.23
2022-12-20T11:48:40.013Z,101965.70
2022-12-20T11:51:26.033Z,101959.83
2022-12-20T11:53:56.525Z,101963.09
2022-12-20T11:56:32.692Z,101964.82
2022-12-20T11:59:19.175Z,101961.79
2022-12-20T12:02:12.678Z,101962.59
2022-12-20T12:04:55.460Z,101952.64
2022-12-20T12:07:35.366Z,101941.09
2022-12-20T12:10:19.926Z,101940.73
2022-12-20T12:12:52.518Z,101945.69
2022-12-20T12:15:40.749Z,101954.37
2022-12-20T12:18:20.425Z,101950.40
2022-12-20T12:21:09.541Z,101952.27
2022-12-20T12:23:52.223Z,101946.21
2022-12-20T12:26:25.486Z,101941.77
2022-12-20T12:29:01.680Z,101933.60
2022-12-20T12:31:40.678Z,101935.10
2022-12-20T12:34:16.321Z,101937.15
2022-12-20T12:37:03.526Z,101934.13
2022-12-20T12:40:00.949Z,101925.41
2022-12-20T12:42:48.881Z,101919.08
2022-12-20T12:45:25.055Z,101920.98
2022-12-20T12:48:03.357Z,101916.86
2022-12-20T12:50:35.067Z,101918.46
2022-12-20T12:53:40.763Z,101911.70
2022-12-20T12:56:43.328Z,101914.50
2022-12-20T12:59:33.289Z,101912.59
2022-12-20T13:02:06.209Z,101909.92
2022-12-20T13:05:10.304Z,101911.66
2022-12-20T13:07:36.976Z,101905.91
2022-12-20T13:10:29.547Z,101907.54
2022-12-20T13:13:01.251Z,101904.23
2022-12-20T13:15:29.356Z,101902.34
2022-12-20T13:18:18.034Z,101900.58
2022-12-20T13:21:36.990Z,101894.23
2022-12-20T13:24:38.150Z,101884.58
2022-12-20T13:27:17.946Z,101875.71
2022-12-20T13:30:22.244Z,101879.71
2022-12-20T13:32:48.990Z,101877.20
2022-12-20T13:35:24.299Z,101875.17
2022-12-20T13:38:04.098Z,101877.33
2022-12-20T13:40:39.200Z,101883.72
2022-12-20T13:43:25.454Z,101879.24
2022-12-20T13:45:57.689Z,101870.02
2022-12-20T13:48:48.081Z,101864.39
2022-12-20T13:51:25.812Z,101863.73
2022-12-20T13:54:03.602Z,101867.63
2022-12-20T13:56:39.651Z,101866.42
2022-12-20T13:59:18.422Z,101860.59
2022-12-20T14:01:57.898Z,101859.23
2022-12-20T14:04:41.179Z,101863.73
2022-12-20T14:07:12.839Z,101864.81
2022-12-20T14:09:39.612Z,101861.89
2022-12-20T14:12:12.300Z,101862.20
2022-12-20T14:14:44.209Z,101858.61
2022-12-20T14:17:31.339Z,101865.88
2022-12-20T14:20:16.370Z,101860.27
2022-12-20T14:22:59.227Z,101852.27
2022-12-20T14:25:43.487Z,101846.81
2022-12-20T14:28:49.977Z,101855.39
2022-12-20T14:31:26.413Z,101859.67
2022-12-20T14:34:07.490Z,101860.81
2022-12-20T14:36:34.644Z,101852.13
2022-12-20T14:39:01.436Z,101851.61
2022-12-20T14:41:36.376Z,101848.62
2022-12-20T14:44:24.288Z,101854.89
2022-12-20T14:46:54.339Z,101854.21
2022-12-20T14:49:30.327Z,101857.59
2022-12-20T14:52:12.107Z,101847.16
2022-12-20T14:57:34.759Z,101848.34
2022-12-20T15:00:23.715Z,101840.84
2022-12-20T15:02:56.507Z,101838.67
2022-12-20T15:05:35.972Z,101830.69
2022-12-20T15:08:20.247Z,101832.25
2022-12-20T15:10:55.842Z,101828.86
2022-12-20T15:13:43.984Z,101840.35
2022-12-20T15:16:19.831Z,101835.05
2022-12-20T15:18:48.252Z,101832.84
2022-12-20T15:21:19.939Z,101831.27
2022-12-20T15:23:54.508Z,101840.54
2022-12-20T15:26:24.474Z,101838.00
2022-12-20T15:28:52.005Z,101838.92
2022-12-20T15:31:21.351Z,101839.70
2022-12-20T15:33:49.003Z,101837.79
2022-12-20T15:36:22.524Z,101833.47
2022-12-20T15:41:37.875Z,101830.22
2022-12-20T15:44:11.552Z,101826.60
2022-12-20T15:46:38.270Z,101824.05
2022-12-20T15:49:05.088Z,101818.58
2022-12-20T15:51:35.282Z,101823.42
2022-12-20T15:54:10.324Z,101827.80
2022-12-20T15:56:37.047Z,101824.90
2022-12-20T15:59:24.415Z,101825.70
2022-12-20T16:01:50.520Z,101819.77
2022-12-20T16:04:19.515Z,101827.58
2022-12-20T16:06:48.741Z,101825.52
2022-12-20T16:09:16.451Z,101828.83
2022-12-20T16:11:43.672Z,101833.95
2022-12-20T16:14:16.621Z,101834.13
2022-12-20T16:16:44.182Z,101836.48
2022-12-20T16:19:11.045Z,101824.11
2022-12-20T16:21:49.758Z,101829.54
2022-12-20T16:24:19.443Z,101832.50
2022-12-20T16:26:48.326Z,101831.06
2022-12-20T16:29:16.103Z,101834.59
2022-12-20T16:31:43.549Z,101835.11
2022-12-20T16:34:13.348Z,101838.27
2022-12-20T16:36:40.655Z,101831.48
2022-12-20T16:39:10.124Z,101820.75
2022-12-20T16:41:39.099Z,101827.09
2022-12-20T16:44:06.883Z,101824.75
2022-12-20T16:46:34.810Z,101818.84
2022-12-20T16:49:01.689Z,101814.73
2022-12-20T16:51:28.390Z,101819.88
2022-12-20T16:56:44.485Z,101830.21
2022-12-20T16:59:21.945Z,101825.36
2022-12-20T17:01:53.319Z,101814.98
2022-12-20T17:04:21.532Z,101816.31
2022-12-20T17:06:48.423Z,101820.35
2022-12-20T17:09:16.431Z,101815.20
2022-12-20T17:11:43.790Z,101811.23
2022-12-20T17:14:13.118Z,101809.61
2022-12-20T17:16:40.958Z,101809.70
2022-12-20T17:19:07.895Z,101808.55
2022-12-20T17:24:26.968Z,101798.65
2022-12-20T17:26:53.681Z,101800.42
2022-12-20T17:29:20.608Z,101805.55
2022-12-20T17:31:48.343Z,101801.25
2022-12-20T17:34:26.797Z,101804.73
2022-12-20T17:36:55.887Z,101805.38
2022-12-20T17:39:24.371Z,101800.54
2022-12-20T17:41:52.304Z,101802.34
2022-12-20T17:44:23.850Z,101808.55
2022-12-20T17:46:51.397Z,101807.51
2022-12-20T17:49:18.388Z,101801.86
2022-12-20T17:51:46.311Z,101806.48
2022-12-20T17:54:24.576Z,101807.55
2022-12-20T17:56:53.818Z,101804.54
2022-12-20T17:59:22.407Z,101809.63
2022-12-20T18:01:49.306Z,101802.86
2022-12-20T18:04:16.961Z,101807.64
2022-12-20T18:06:44.862Z,101806.00
2022-12-20T18:09:21.061Z,101804.52
2022-12-20T18:11:48.453Z,101799.72
2022-12-20T18:14:15.918Z,101788.83
2022-12-20T18:16:43.284Z,101802.65
2022-12-20T18:19:18.905Z,101803.75
2022-12-20T18:21:45.810Z,101801.33
2022-12-20T18:24:14.696Z,101799.16
2022-12-20T18:26:42.455Z,101794.98
2022-12-20T18:29:10.822Z,101797.83
2022-12-20T18:31:38.307Z,101796.04
2022-12-20T18:34:05.375Z,101797.45
2022-12-20T18:36:35.213Z,101796.64
2022-12-20T18:39:04.881Z,101803.09
2022-12-20T18:41:32.410Z,101796.16
2022-12-20T18:44:02.780Z,101798.02
2022-12-20T18:46:30.035Z,101807.52
2022-12-20T18:48:57.773Z,101808.23
2022-12-20T18:51:27.296Z,101811.27
2022-12-20T18:53:55.827Z,101817.84
2022-12-20T18:56:25.571Z,101815.05
2022-12-20T18:58:52.616Z,101806.36
2022-12-20T19:01:25.553Z,101803.54
2022-12-20T19:03:53.602Z,101809.05
2022-12-20T19:06:21.714Z,101809.02
2022-12-20T19:08:49.410Z,101808.89
2022-12-20T19:11:20.927Z,101805.98
2022-12-20T19:13:47.940Z,101799.05
2022-12-20T19:16:21.235Z,101802.88
2022-12-20T19:18:48.605Z,101804.94
2022-12-20T19:21:24.366Z,101803.33
2022-12-20T19:23:53.417Z,101806.82
2022-12-20T19:26:21.894Z,101810.13
2022-12-20T19:28:48.669Z,101798.09
2022-12-20T19:31:21.589Z,101802.93
2022-12-20T19:33:52.087Z,101800.34
2022-12-20T19:36:20.762Z,101800.77
2022-12-20T19:38:51.131Z,101804.23
2022-12-20T19:41:19.350Z,101800.45
2022-12-20T19:43:51.520Z,101797.02
2022-12-20T19:46:25.100Z,101789.41
2022-12-20T19:48:55.182Z,101776.33
2022-12-20T19:51:22.079Z,101773.54
2022-12-20T19:53:51.026Z,101780.91
2022-12-20T19:56:20.805Z,101779.20
2022-12-20T19:58:48.022Z,101775.16
2022-12-20T20:01:18.025Z,101784.73
2022-12-20T20:03:45.794Z,101781.65
2022-12-20T20:06:13.625Z,101780.70
2022-12-20T20:08:41.119Z,101773.98
2022-12-20T20:11:09.964Z,101775.96
2022-12-20T20:13:38.743Z,101769.38
2022-12-20T20:16:06.952Z,101767.90
2022-12-20T20:18:38.477Z,101766.13
2022-12-20T20:21:08.405Z,101767.42
2022-12-20T20:23:37.315Z,101769.83
2022-12-20T20:26:10.367Z,101770.63
2022-12-20T20:28:45.074Z,101772.03
2022-12-20T20:31:17.734Z,101769.11
2022-12-20T20:33:45.730Z,101771.67
2022-12-20T20:36:15.445Z,101764.50
2022-12-20T20:38:42.217Z,101759.26
2022-12-20T20:41:09.545Z,101761.06
2022-12-20T20:43:38.278Z,101755.18
2022-12-20T20:46:07.985Z,101756.23
2022-12-20T20:48:35.553Z,101757.23
2022-12-20T20:51:02.503Z,101761.28
2022-12-20T20:53:33.420Z,101756.73
2022-12-20T20:56:02.098Z,101761.95
2022-12-20T20:58:29.114Z,101767.16
2022-12-20T21:01:01.099Z,101759.71
2022-12-20T21:03:29.838Z,101757.48
2022-12-20T21:08:43.646Z,101756.70
2022-12-20T21:11:10.846Z,101751.69
2022-12-20T21:13:37.775Z,101746.71
2022-12-20T21:16:06.603Z,101749.70
2022-12-20T21:18:33.389Z,101750.73
2022-12-20T21:21:05.993Z,101751.08
2022-12-20T21:23:32.707Z,101751.64
2022-12-20T21:25:59.520Z,101756.23
2022-12-20T21:28:27.716Z,101756.90
2022-12-20T21:30:59.789Z,101747.98
2022-12-20T21:33:27.320Z,101744.10
2022-12-20T21:36:04.690Z,101740.92
2022-12-20T21:38:31.883Z,101739.49
2022-12-20T21:41:00.445Z,101743.39
2022-12-20T21:43:27.821Z,101736.67
2022-12-20T21:45:54.755Z,101736.82
2022-12-20T21:48:22.284Z,101734.02
2022-12-20T21:51:03.720Z,101734.26
2022-12-20T21:53:31.873Z,101731.38
2022-12-20T21:56:00.329Z,101732.98
2022-12-20T21:58:29.199Z,101734.35
2022-12-20T22:00:57.322Z,101732.23
2022-12-20T22:03:25.311Z,101728.75
2022-12-20T22:05:54.343Z,101732.66
2022-12-20T22:08:22.219Z,101732.52
2022-12-20T22:10:57.314Z,101726.85
2022-12-20T22:13:24.098Z,101727.02
2022-12-20T22:15:51.358Z,101729.56
2022-12-20T22:18:18.211Z,101724.33
2022-12-20T22:20:45.997Z,101716.51
2022-12-20T22:23:13.152Z,101711.93
2022-12-20T22:25:40.607Z,101714.20
2022-12-20T22:28:07.422Z,101710.83
2022-12-20T22:30:34.682Z,101711.16
2022-12-20T22:33:01.455Z,101704.69
2022-12-20T22:35:28.193Z,101705.73
2022-12-20T22:37:54.951Z,101711.58
2022-12-20T22:40:23.193Z,101703.98
2022-12-20T22:42:49.997Z,101696.14
2022-12-20T22:45:16.928Z,101703.38
2022-12-20T22:47:43.693Z,101694.38
2022-12-20T22:50:11.099Z,101687.65
2022-12-20T22:52:37.941Z,101685.59
2022-12-20T22:55:05.063Z,101681.61
2022-12-20T22:57:34.795Z,101682.67
2022-12-20T23:00:01.981Z,101684.88
2022-12-20T23:02:28.902Z,101683.99
2022-12-20T23:04:55.848Z,101684.54
2022-12-20T23:07:22.919Z,101685.92
2022-12-20T23:09:49.684Z,101682.08
2022-12-20T23:12:34.942Z,101678.59
2022-12-20T23:15:07.522Z,101676.96
2022-12-20T23:17:34.272Z,101673.02
2022-12-20T23:20:19.917Z,101666.42
2022-12-20T23:22:46.664Z,101658.77
2022-12-20T23:25:21.251Z,101653.31
2022-12-20T23:27:49.585Z,101647.90
2022-12-20T23:30:19.577Z,101646.77
2022-12-20T23:32:46.355Z,101644.52
2022-12-20T23:35:19.073Z,101638.22
2022-12-20T23:37:46.505Z,101627.52
2022-12-20T23:40:15.261Z,101625.12
2022-12-20T23:42:42.375Z,101627.77
2022-12-20T23:45:10.669Z,101624.77
2022-12-20T23:47:37.483Z,101615.73
2022-12-20T23:50:04.843Z,101607.73
2022-12-20T23:52:31.546Z,101604.69
2022-12-20T23:54:58.391Z,101606.79
2022-12-20T23:57:25.158Z,101609.83
2022-12-20T23:59:51.921Z,101611.45
